createdAt,value
2022-08-02T00:00:22.041Z,2.00
2022-08-02T00:02:50.935Z,1.93
2022-08-02T00:05:26.075Z,2.20
2022-08-02T00:07:54.326Z,2.00
2022-08-02T00:10:29.167Z,2.43
2022-08-02T00:12:59.477Z,2.00
2022-08-02T00:15:36.376Z,2.13
2022-08-02T00:18:05.243Z,2.47
2022-08-02T00:20:40.061Z,2.07
2022-08-02T00:23:08.777Z,2.17
2022-08-02T00:25:54.991Z,2.37
2022-08-02T00:28:27.446Z,2.50
2022-08-02T00:31:05.166Z,2.30
2022-08-02T00:34:27.176Z,2.50
2022-08-02T00:36:36.092Z,2.40
2022-08-02T00:39:04.357Z,2.50
2022-08-02T00:42:01.416Z,2.10
2022-08-02T00:44:29.778Z,2.27
2022-08-02T00:47:06.407Z,2.50
2022-08-02T00:49:34.924Z,2.63
2022-08-02T00:52:10.524Z,2.50
2022-08-02T00:54:39.397Z,2.47
2022-08-02T00:57:14.433Z,3.03
2022-08-02T00:59:43.302Z,2.83
2022-08-02T01:02:20.325Z,2.93
2022-08-02T01:04:48.720Z,2.70
2022-08-02T01:07:24.040Z,3.00
2022-08-02T01:09:52.587Z,3.10
2022-08-02T01:12:27.133Z,2.90
2022-08-02T01:14:58.268Z,3.17
2022-08-02T01:17:43.058Z,2.83
2022-08-02T01:20:21.246Z,2.97
2022-08-02T01:23:22.118Z,3.20
2022-08-02T01:26:20.077Z,3.23
2022-08-02T01:28:54.222Z,2.90
2022-08-02T01:31:40.111Z,3.00
2022-08-02T01:34:24.453Z,2.87
2022-08-02T01:37:06.234Z,3.30
2022-08-02T01:39:37.896Z,3.00
2022-08-02T01:42:14.561Z,2.60
2022-08-02T01:44:47.598Z,2.97
2022-08-02T01:47:26.146Z,3.33
2022-08-02T01:49:59.276Z,2.90
2022-08-02T01:52:38.259Z,3.10
2022-08-02T01:55:09.911Z,3.30
2022-08-02T01:57:57.091Z,3.20
2022-08-02T02:00:31.827Z,3.47
2022-08-02T02:03:09.141Z,2.77
2022-08-02T02:05:39.073Z,3.37
2022-08-02T02:08:15.630Z,2.73
2022-08-02T02:10:57.876Z,3.00
2022-08-02T02:13:54.175Z,3.10
2022-08-02T02:16:25.161Z,3.17
2022-08-02T02:19:01.267Z,3.30
2022-08-02T02:21:29.964Z,3.20
2022-08-02T02:24:09.138Z,3.30
2022-08-02T02:26:49.288Z,3.33
2022-08-02T02:29:30.178Z,3.00
2022-08-02T02:32:08.899Z,3.43
2022-08-02T02:34:53.541Z,3.80
2022-08-02T02:37:25.090Z,3.70
2022-08-02T02:40:02.197Z,3.30
2022-08-02T02:42:33.805Z,3.57
2022-08-02T02:45:11.291Z,3.70
2022-08-02T02:47:42.511Z,3.67
2022-08-02T02:50:19.316Z,3.40
2022-08-02T02:52:48.972Z,3.53
2022-08-02T02:55:26.332Z,3.97
2022-08-02T02:57:55.705Z,3.93
2022-08-02T03:00:46.402Z,3.60
2022-08-02T03:03:19.709Z,3.83
2022-08-02T03:05:56.225Z,3.90
2022-08-02T03:08:24.843Z,3.90
2022-08-02T03:11:00.532Z,4.20
2022-08-02T03:13:33.290Z,4.00
2022-08-02T03:16:13.564Z,3.87
2022-08-02T03:18:45.654Z,4.40
2022-08-02T03:21:21.575Z,4.30
2022-08-02T03:23:50.835Z,4.30
2022-08-02T03:26:26.602Z,4.60
2022-08-02T03:28:55.063Z,4.60
2022-08-02T03:31:32.780Z,4.47
2022-08-02T03:34:04.188Z,4.47
2022-08-02T03:36:41.244Z,4.70
2022-08-02T03:39:10.080Z,5.13
2022-08-02T03:41:46.354Z,5.20
2022-08-02T03:44:16.316Z,5.20
2022-08-02T03:46:52.352Z,4.93
2022-08-02T03:49:22.924Z,5.40
2022-08-02T03:51:58.567Z,5.77
2022-08-02T03:54:34.578Z,5.43
2022-08-02T03:57:20.280Z,5.30
2022-08-02T03:59:48.760Z,5.23
2022-08-02T04:02:23.269Z,5.60
2022-08-02T04:04:53.201Z,5.20
2022-08-02T04:08:35.244Z,4.90
2022-08-02T04:10:17.440Z,4.60
2022-08-02T04:12:53.368Z,4.73
2022-08-02T04:15:22.632Z,4.63
2022-08-02T04:18:03.320Z,5.10
2022-08-02T04:20:36.111Z,5.00
2022-08-02T04:23:14.598Z,5.20
2022-08-02T04:25:44.866Z,4.67
2022-08-02T04:28:27.550Z,5.20
2022-08-02T04:31:02.818Z,5.00
2022-08-02T04:33:45.682Z,5.27
2022-08-02T04:36:16.135Z,5.30
2022-08-02T04:39:07.308Z,5.03
2022-08-02T04:41:41.056Z,4.80
2022-08-02T04:44:19.317Z,4.40
2022-08-02T04:46:47.812Z,4.90
2022-08-02T04:49:22.447Z,4.80
2022-08-02T04:51:52.436Z,4.37
2022-08-02T04:54:27.430Z,4.63
2022-08-02T04:56:55.945Z,4.30
2022-08-02T04:59:30.342Z,4.60
2022-08-02T05:01:58.700Z,4.40
2022-08-02T05:04:34.350Z,4.13
2022-08-02T05:07:04.271Z,4.50
2022-08-02T05:09:39.354Z,4.03
2022-08-02T05:12:09.205Z,4.70
2022-08-02T05:14:44.291Z,4.37
2022-08-02T05:17:13.028Z,4.47
2022-08-02T05:19:48.440Z,4.87
2022-08-02T05:22:18.252Z,4.13
2022-08-02T05:24:53.670Z,4.33
2022-08-02T05:27:23.158Z,4.40
2022-08-02T05:29:58.661Z,4.60
2022-08-02T05:32:34.209Z,4.53
2022-08-02T05:35:09.712Z,4.37
2022-08-02T05:37:40.133Z,4.40
2022-08-02T05:40:25.360Z,3.90
2022-08-02T05:42:54.681Z,3.63
2022-08-02T05:45:29.511Z,4.00
2022-08-02T05:47:58.058Z,3.70
2022-08-02T05:50:34.494Z,3.53
2022-08-02T05:53:09.990Z,4.00
2022-08-02T05:55:53.509Z,3.73
2022-08-02T05:58:29.154Z,3.83
2022-08-02T06:01:04.382Z,3.57
2022-08-02T06:03:38.316Z,3.97
2022-08-02T06:06:16.421Z,3.53
2022-08-02T06:08:49.011Z,3.50
2022-08-02T06:11:27.398Z,3.43
2022-08-02T06:13:56.852Z,3.23
2022-08-02T06:16:36.838Z,3.53
2022-08-02T06:19:12.846Z,3.50
2022-08-02T06:22:36.085Z,3.33
2022-08-02T06:24:39.586Z,2.60
2022-08-02T06:27:15.536Z,3.10
2022-08-02T06:29:46.892Z,3.00
2022-08-02T06:32:25.739Z,3.07
2022-08-02T06:35:00.911Z,3.10
2022-08-02T06:37:44.489Z,2.80
2022-08-02T06:40:33.497Z,3.27
2022-08-02T06:43:13.694Z,2.87
2022-08-02T06:45:49.755Z,3.07
2022-08-02T06:48:18.312Z,3.00
2022-08-02T06:50:53.466Z,3.20
2022-08-02T06:53:28.734Z,2.67
2022-08-02T06:55:59.340Z,3.10
2022-08-02T06:58:34.529Z,2.97
2022-08-02T07:01:07.302Z,2.33
2022-08-02T07:03:42.604Z,2.70
2022-08-02T07:06:12.206Z,2.60
2022-08-02T07:09:04.912Z,2.80
2022-08-02T07:11:43.776Z,2.40
2022-08-02T07:14:12.355Z,2.27
2022-08-02T07:16:40.785Z,2.40
2022-08-02T07:19:15.448Z,2.30
2022-08-02T07:21:59.516Z,2.53
2022-08-02T07:24:36.573Z,2.50
2022-08-02T07:27:11.705Z,2.20
2022-08-02T07:29:47.718Z,2.40
2022-08-02T07:32:29.449Z,2.13
2022-08-02T07:34:58.430Z,2.30
2022-08-02T07:37:54.859Z,1.90
2022-08-02T07:40:25.149Z,1.90
2022-08-02T07:43:04.433Z,2.20
2022-08-02T07:45:35.732Z,2.33
2022-08-02T07:48:12.496Z,2.10
2022-08-02T07:50:41.099Z,1.97
2022-08-02T07:53:16.509Z,2.30
2022-08-02T07:55:45.041Z,1.90
2022-08-02T07:58:21.475Z,1.80
2022-08-02T08:00:50.011Z,2.00
2022-08-02T08:03:24.535Z,1.90
2022-08-02T08:05:54.871Z,1.80
2022-08-02T08:08:29.532Z,1.67
2022-08-02T08:10:58.125Z,1.53
2022-08-02T08:13:34.443Z,1.60
2022-08-02T08:16:04.188Z,1.87
2022-08-02T08:18:39.626Z,1.80
2022-08-02T08:21:07.833Z,1.60
2022-08-02T08:23:43.833Z,1.67
2022-08-02T08:26:15.650Z,1.50
2022-08-02T08:28:52.646Z,1.43
2022-08-02T08:31:40.872Z,1.50
2022-08-02T08:34:15.506Z,1.50
2022-08-02T08:36:44.563Z,1.50
2022-08-02T08:39:19.872Z,1.80
2022-08-02T08:41:48.525Z,1.50
2022-08-02T08:44:24.640Z,1.60
2022-08-02T08:46:53.770Z,1.63
2022-08-02T08:49:34.911Z,1.60
2022-08-02T08:52:06.866Z,1.73
2022-08-02T08:54:45.650Z,1.90
2022-08-02T08:57:18.194Z,1.90
2022-08-02T08:59:55.576Z,1.80
2022-08-02T09:02:28.337Z,1.80
2022-08-02T09:05:04.555Z,1.70
2022-08-02T09:07:33.004Z,1.95
2022-08-02T09:10:07.613Z,1.63
2022-08-02T09:12:36.345Z,1.70
2022-08-02T09:15:16.084Z,1.60
2022-08-02T09:17:53.379Z,1.50
2022-08-02T09:20:30.803Z,1.80
2022-08-02T09:23:10.193Z,1.80
2022-08-02T09:25:58.983Z,1.80
2022-08-02T09:28:29.925Z,1.90
2022-08-02T09:31:11.706Z,1.70
2022-08-02T09:33:52.186Z,1.75
2022-08-02T09:36:27.604Z,1.92
2022-08-02T09:38:59.092Z,1.95
2022-08-02T09:41:35.769Z,1.67
2022-08-02T09:44:07.096Z,1.60
2022-08-02T09:46:45.600Z,1.50
2022-08-02T09:49:16.944Z,1.90
2022-08-02T09:51:57.923Z,1.70
2022-08-02T09:54:29.168Z,1.50
2022-08-02T09:57:06.990Z,1.40
2022-08-02T09:59:35.598Z,1.33
2022-08-02T10:02:22.687Z,1.40
2022-08-02T10:04:53.289Z,1.50
2022-08-02T10:07:29.613Z,1.30
2022-08-02T10:09:58.662Z,1.60
2022-08-02T10:12:33.945Z,1.60
2022-08-02T10:15:02.312Z,1.20
2022-08-02T10:17:38.724Z,1.30
2022-08-02T10:20:08.075Z,1.48
2022-08-02T10:22:44.774Z,1.20
2022-08-02T10:25:13.574Z,1.30
2022-08-02T10:28:04.625Z,1.17
2022-08-02T10:30:34.736Z,1.60
2022-08-02T10:33:18.766Z,1.10
2022-08-02T10:36:06.660Z,1.40
2022-08-02T10:38:43.636Z,1.17
2022-08-02T10:41:13.562Z,1.35
2022-08-02T10:43:55.756Z,1.13
2022-08-02T10:46:35.709Z,1.30
2022-08-02T10:49:39.793Z,1.40
2022-08-02T10:52:11.478Z,1.50
2022-08-02T10:54:48.675Z,1.02
2022-08-02T10:57:25.856Z,1.10
2022-08-02T11:00:04.666Z,1.25
2022-08-02T11:02:39.011Z,1.10
2022-08-02T11:05:42.884Z,1.10
2022-08-02T11:08:20.971Z,1.00
2022-08-02T11:10:56.676Z,1.15
2022-08-02T11:13:26.801Z,1.02
2022-08-02T11:16:11.550Z,1.10
2022-08-02T11:19:17.483Z,1.10
2022-08-02T11:22:08.813Z,1.20
2022-08-02T11:24:38.887Z,1.20
2022-08-02T11:27:16.835Z,1.00
2022-08-02T11:29:47.235Z,1.10
2022-08-02T11:32:31.518Z,0.98
2022-08-02T11:35:07.105Z,1.13
2022-08-02T11:37:44.695Z,0.90
2022-08-02T11:40:19.866Z,1.20
2022-08-02T11:42:56.801Z,1.10
2022-08-02T11:45:29.897Z,0.93
2022-08-02T11:48:04.702Z,1.10
2022-08-02T11:50:33.269Z,1.00
2022-08-02T11:53:09.824Z,1.23
2022-08-02T11:55:38.612Z,1.08
2022-08-02T11:58:07.893Z,0.90
2022-08-02T12:00:43.854Z,1.10
2022-08-02T12:03:16.539Z,0.80
2022-08-02T12:06:05.922Z,0.90
2022-08-02T12:08:54.339Z,1.10
2022-08-02T12:11:23.563Z,1.00
2022-08-02T12:13:58.901Z,0.80
2022-08-02T12:16:51.424Z,1.05
2022-08-02T12:19:26.769Z,0.70
2022-08-02T12:22:27.442Z,1.05
2022-08-02T12:25:06.077Z,1.05
2022-08-02T12:27:36.577Z,0.90
2022-08-02T12:30:14.773Z,1.02
2022-08-02T12:32:50.018Z,1.13
2022-08-02T12:35:27.756Z,0.90
2022-08-02T12:37:57.381Z,0.98
2022-08-02T12:40:38.127Z,0.90
2022-08-02T12:43:08.560Z,0.90
2022-08-02T12:45:55.149Z,0.90
2022-08-02T12:48:38.071Z,0.85
2022-08-02T12:51:54.762Z,1.00
2022-08-02T12:54:30.672Z,1.35
2022-08-02T12:57:19.866Z,1.05
2022-08-02T12:59:53.256Z,1.00
2022-08-02T13:02:29.151Z,1.00
2022-08-02T13:05:01.024Z,0.90
2022-08-02T13:07:36.141Z,0.80
2022-08-02T13:10:05.784Z,0.90
2022-08-02T13:12:43.914Z,1.00
2022-08-02T13:15:50.083Z,1.08
2022-08-02T13:18:07.817Z,1.00
2022-08-02T13:20:39.115Z,1.00
2022-08-02T13:23:21.488Z,1.00
2022-08-02T13:25:52.852Z,1.10
2022-08-02T13:28:29.962Z,0.80
2022-08-02T13:31:10.025Z,0.75
2022-08-02T13:33:59.909Z,0.90
2022-08-02T13:36:28.411Z,0.90
2022-08-02T13:39:03.777Z,1.20
2022-08-02T13:41:33.724Z,1.05
2022-08-02T13:44:11.027Z,1.00
2022-08-02T13:46:45.727Z,1.05
2022-08-02T13:49:21.924Z,0.80
2022-08-02T13:52:09.961Z,0.88
2022-08-02T13:54:44.935Z,0.93
2022-08-02T13:57:13.530Z,0.90
2022-08-02T13:59:58.413Z,1.00
2022-08-02T14:02:28.398Z,0.95
2022-08-02T14:05:03.844Z,1.00
2022-08-02T14:07:32.495Z,1.00
2022-08-02T14:10:07.983Z,0.82
2022-08-02T14:12:36.540Z,1.05
2022-08-02T14:15:13.963Z,1.38
2022-08-02T14:17:42.597Z,1.00
2022-08-02T14:20:29.873Z,0.90
2022-08-02T14:22:58.836Z,0.90
2022-08-02T14:25:33.887Z,1.08
2022-08-02T14:28:02.378Z,0.80
2022-08-02T14:30:39.024Z,0.90
2022-08-02T14:33:26.984Z,0.90
2022-08-02T14:36:03.833Z,0.88
2022-08-02T14:38:35.329Z,1.00
2022-08-02T14:41:09.914Z,1.00
2022-08-02T14:43:55.346Z,1.02
2022-08-02T14:46:32.272Z,0.95
2022-08-02T14:49:03.668Z,0.95
2022-08-02T14:51:38.879Z,1.05
2022-08-02T14:54:09.117Z,0.80
2022-08-02T14:56:48.307Z,1.30
2022-08-02T14:59:17.417Z,0.80
2022-08-02T15:01:53.944Z,0.90
2022-08-02T15:04:22.861Z,0.82
2022-08-02T15:06:58.044Z,1.10
2022-08-02T15:09:27.038Z,0.88
2022-08-02T15:12:05.363Z,1.10
2022-08-02T15:14:34.359Z,1.05
2022-08-02T15:17:11.224Z,1.10
2022-08-02T15:19:56.167Z,0.85
2022-08-02T15:22:34.942Z,0.90
2022-08-02T15:25:03.708Z,1.10
2022-08-02T15:27:50.046Z,1.10
2022-08-02T15:30:19.313Z,0.88
2022-08-02T15:32:56.932Z,1.10
2022-08-02T15:35:25.800Z,1.02
2022-08-02T15:38:01.074Z,1.10
2022-08-02T15:40:30.651Z,1.00
2022-08-02T15:43:05.893Z,0.90
2022-08-02T15:45:35.841Z,0.90
2022-08-02T15:48:12.966Z,0.93
2022-08-02T15:50:41.895Z,0.88
2022-08-02T15:53:16.920Z,1.08
2022-08-02T15:55:52.760Z,1.27
2022-08-02T15:58:44.110Z,1.20
2022-08-02T16:01:19.204Z,1.20
2022-08-02T16:03:49.236Z,1.02
2022-08-02T16:06:17.552Z,1.27
2022-08-02T16:08:54.564Z,1.00
2022-08-02T16:11:30.085Z,1.00
2022-08-02T16:13:59.211Z,1.00
2022-08-02T16:16:36.093Z,1.00
2022-08-02T16:19:46.463Z,1.20
2022-08-02T16:22:03.076Z,1.00
2022-08-02T16:24:32.095Z,1.00
2022-08-02T16:27:06.992Z,0.95
2022-08-02T16:29:36.498Z,1.30
2022-08-02T16:32:18.073Z,1.13
2022-08-02T16:35:07.461Z,1.20
2022-08-02T16:37:51.860Z,1.15
2022-08-02T16:40:23.456Z,0.88
2022-08-02T16:42:58.000Z,1.17
2022-08-02T16:45:28.854Z,1.10
2022-08-02T16:48:09.113Z,1.23
2022-08-02T16:50:39.575Z,1.00
2022-08-02T16:53:17.674Z,1.08
2022-08-02T16:56:03.377Z,0.93
2022-08-02T16:58:38.134Z,1.10
2022-08-02T17:01:06.807Z,0.90
2022-08-02T17:03:55.921Z,1.10
2022-08-02T17:06:27.501Z,0.80
2022-08-02T17:09:04.382Z,1.00
2022-08-02T17:11:32.898Z,1.00
2022-08-02T17:14:08.117Z,1.00
2022-08-02T17:16:38.525Z,1.20
2022-08-02T17:19:15.008Z,1.00
2022-08-02T17:21:45.088Z,1.13
2022-08-02T17:24:20.148Z,1.00
2022-08-02T17:26:48.889Z,1.25
2022-08-02T17:29:25.160Z,1.00
2022-08-02T17:32:05.087Z,1.27
2022-08-02T17:34:56.346Z,1.23
2022-08-02T17:37:41.642Z,1.10
2022-08-02T17:40:19.688Z,1.02
2022-08-02T17:42:48.554Z,0.98
2022-08-02T17:45:25.577Z,1.00
2022-08-02T17:48:05.148Z,1.10
2022-08-02T17:50:41.043Z,1.05
2022-08-02T17:53:19.330Z,0.98
2022-08-02T17:55:54.162Z,1.10
2022-08-02T17:58:22.566Z,1.10
2022-08-02T18:01:08.364Z,1.20
2022-08-02T18:03:52.216Z,1.10
2022-08-02T18:06:30.382Z,1.00
2022-08-02T18:09:00.043Z,1.00
2022-08-02T18:11:51.825Z,1.23
2022-08-02T18:14:22.112Z,0.90
2022-08-02T18:17:00.231Z,1.05
2022-08-02T18:19:42.816Z,1.00
2022-08-02T18:22:25.091Z,1.02
2022-08-02T18:24:56.450Z,1.13
2022-08-02T18:27:31.098Z,1.10
2022-08-02T18:30:00.281Z,1.13
2022-08-02T18:33:57.155Z,1.10
2022-08-02T18:35:41.840Z,1.02
2022-08-02T18:38:17.137Z,1.20
2022-08-02T18:40:50.814Z,1.00
2022-08-02T18:43:29.342Z,1.30
2022-08-02T18:46:06.949Z,1.00
2022-08-02T18:48:51.110Z,1.30
2022-08-02T18:51:19.910Z,1.13
2022-08-02T18:53:57.173Z,1.00
2022-08-02T18:56:27.090Z,1.10
2022-08-02T18:59:09.146Z,1.27
2022-08-02T19:01:46.577Z,1.00
2022-08-02T19:04:27.679Z,1.13
2022-08-02T19:07:07.455Z,1.17
2022-08-02T19:09:44.287Z,1.27
2022-08-02T19:12:26.005Z,1.15
2022-08-02T19:15:05.126Z,1.00
2022-08-02T19:17:55.376Z,1.25
2022-08-02T19:20:29.053Z,1.10
2022-08-02T19:22:58.951Z,1.23
2022-08-02T19:28:30.140Z,1.20
2022-08-02T19:30:59.114Z,1.23
2022-08-02T19:34:05.853Z,1.50
2022-08-02T19:36:30.102Z,1.35
2022-08-02T19:39:09.203Z,1.45
2022-08-02T19:41:46.980Z,1.40
2022-08-02T19:44:29.526Z,1.30
2022-08-02T19:46:58.513Z,1.45
2022-08-02T19:49:39.930Z,1.10
2022-08-02T19:52:21.912Z,1.20
2022-08-02T19:56:01.623Z,1.60
2022-08-02T19:57:49.012Z,1.30
2022-08-02T20:00:30.538Z,1.60
2022-08-02T20:03:00.150Z,1.30
2022-08-02T20:05:35.140Z,1.40
2022-08-02T20:08:03.512Z,1.48
2022-08-02T20:10:40.252Z,1.23
2022-08-02T20:13:08.987Z,1.27
2022-08-02T20:15:56.405Z,1.38
2022-08-02T20:18:33.355Z,1.10
2022-08-02T20:21:02.781Z,1.17
2022-08-02T20:23:37.320Z,1.30
2022-08-02T20:26:06.493Z,1.40
2022-08-02T20:28:44.236Z,1.38
2022-08-02T20:31:14.440Z,1.45
2022-08-02T20:33:55.769Z,1.30
2022-08-02T20:36:25.136Z,1.17
2022-08-02T20:39:00.327Z,1.30
2022-08-02T20:41:36.513Z,1.20
2022-08-02T20:44:30.818Z,1.40
2022-08-02T20:47:01.616Z,1.40
2022-08-02T20:49:40.863Z,1.10
2022-08-02T20:52:24.038Z,1.13
2022-08-02T20:55:00.250Z,1.57
2022-08-02T20:57:36.119Z,1.30
2022-08-02T21:00:24.219Z,1.50
2022-08-02T21:02:53.857Z,1.20
2022-08-02T21:05:54.400Z,1.20
2022-08-02T21:08:27.265Z,1.30
2022-08-02T21:10:55.807Z,1.20
2022-08-02T21:13:26.451Z,1.37
2022-08-02T21:16:06.704Z,1.70
2022-08-02T21:18:45.374Z,1.23
2022-08-02T21:21:14.591Z,0.97
2022-08-02T21:23:54.650Z,1.10
2022-08-02T21:26:28.543Z,1.40
2022-08-02T21:29:05.751Z,1.20
2022-08-02T21:31:36.492Z,1.23
2022-08-02T21:34:22.613Z,1.30
2022-08-02T21:36:55.857Z,1.50
2022-08-02T21:39:31.311Z,1.10
2022-08-02T21:42:00.535Z,1.23
2022-08-02T21:44:29.125Z,1.20
2022-08-02T21:47:05.292Z,1.20
2022-08-02T21:50:12.791Z,1.30
2022-08-02T21:52:32.038Z,1.50
2022-08-02T21:55:09.635Z,1.10
2022-08-02T21:57:43.328Z,1.50
2022-08-02T22:00:28.238Z,1.27
2022-08-02T22:02:57.549Z,1.40
2022-08-02T22:05:37.283Z,1.50
2022-08-02T22:08:06.560Z,1.67
2022-08-02T22:10:59.423Z,1.20
2022-08-02T22:13:28.399Z,1.43
2022-08-02T22:16:13.466Z,1.50
2022-08-02T22:18:41.970Z,1.40
2022-08-02T22:21:33.498Z,1.70
2022-08-02T22:24:19.492Z,1.83
2022-08-02T22:27:02.460Z,1.87
2022-08-02T22:29:31.033Z,1.80
2022-08-02T22:32:06.365Z,1.70
2022-08-02T22:34:51.844Z,2.00
2022-08-02T22:38:14.897Z,2.00
2022-08-02T22:40:18.087Z,2.13
2022-08-02T22:42:53.346Z,2.47
2022-08-02T22:45:22.304Z,1.80
2022-08-02T22:47:57.330Z,2.10
2022-08-02T22:50:27.980Z,1.93
2022-08-02T22:53:05.466Z,2.10
2022-08-02T22:55:34.803Z,2.00
2022-08-02T22:58:16.388Z,2.07
2022-08-02T22:58:48.002Z,1.10
2022-08-02T23:00:48.588Z,2.17
2022-08-02T23:03:23.362Z,2.17
2022-08-02T23:05:52.182Z,1.90
2022-08-02T23:08:28.390Z,2.03
2022-08-02T23:10:57.248Z,2.10
2022-08-02T23:13:32.473Z,1.90
2022-08-02T23:16:18.257Z,2.20
2022-08-02T23:19:10.483Z,1.80
2022-08-02T23:22:01.408Z,1.90
2022-08-02T23:24:35.480Z,2.50
2022-08-02T23:27:19.233Z,2.30
2022-08-02T23:30:01.529Z,2.30
2022-08-02T23:32:30.609Z,2.23
2022-08-02T23:35:06.450Z,2.40
2022-08-02T23:37:58.904Z,2.17
2022-08-02T23:40:40.098Z,1.93
2022-08-02T23:43:16.737Z,2.27
2022-08-02T23:45:46.706Z,2.50
2022-08-02T23:48:21.399Z,2.23
2022-08-02T23:50:49.800Z,2.37
2022-08-02T23:53:18.295Z,2.73
2022-08-02T23:55:54.430Z,2.50
2022-08-02T23:58:32.923Z,2.17
